createdAt,value
2016-04-15T00:00:18.848Z,62.12
2016-04-15T00:01:18.851Z,62.21
2016-04-15T00:02:18.868Z,61.83
2016-04-15T00:03:18.887Z,61.93
2016-04-15T00:04:18.921Z,61.16
2016-04-15T00:05:18.939Z,61.07
2016-04-15T00:06:18.942Z,61.45
2016-04-15T00:07:18.960Z,61.16
2016-04-15T00:08:18.978Z,61.25
2016-04-15T00:09:18.997Z,61.16
2016-04-15T00:10:19.015Z,61.83
2016-04-15T00:11:19.034Z,61.45
2016-04-15T00:12:19.068Z,61.54
2016-04-15T00:13:19.070Z,61.35
2016-04-15T00:14:19.089Z,61.45
2016-04-15T00:15:19.106Z,61.35
2016-04-15T00:16:19.125Z,61.45
2016-04-15T00:17:19.144Z,61.25
2016-04-15T00:18:19.161Z,61.25
2016-04-15T00:19:19.180Z,61.35
2016-04-15T00:20:19.197Z,61.25
2016-04-15T00:21:19.200Z,61.64
2016-04-15T00:22:19.235Z,62.02
2016-04-15T00:23:19.252Z,61.64
2016-04-15T00:24:19.271Z,62.02
2016-04-15T00:25:19.290Z,61.83
2016-04-15T00:26:19.308Z,62.02
2016-04-15T00:27:19.327Z,62.21
2016-04-15T00:28:19.344Z,62.4
2016-04-15T00:29:19.363Z,62.3
2016-04-15T00:30:19.381Z,62.12
2016-04-15T00:31:19.399Z,62.12
2016-04-15T00:32:19.262Z,62.3
2016-04-15T00:33:19.422Z,62.49
2016-04-15T00:34:19.440Z,62.88
2016-04-15T00:35:19.466Z,62.78
2016-04-15T00:36:19.484Z,62.88
2016-04-15T00:37:19.518Z,62.78
2016-04-15T00:38:19.520Z,62.65
2016-04-15T00:39:19.538Z,62.65
2016-04-15T00:40:19.557Z,62.88
2016-04-15T00:41:19.575Z,62.78
2016-04-15T00:42:19.593Z,62.68
2016-04-15T00:43:19.595Z,62.78
2016-04-15T00:44:19.614Z,62.88
2016-04-15T00:45:19.633Z,62.65
2016-04-15T00:46:19.667Z,62.56
2016-04-15T00:47:19.685Z,62.56
2016-04-15T00:48:19.688Z,62.75
2016-04-15T00:49:19.706Z,62.56
2016-04-15T00:50:19.740Z,62.4
2016-04-15T00:51:19.743Z,62.59
2016-04-15T00:52:19.761Z,62.4
2016-04-15T00:53:19.780Z,62.49
2016-04-15T00:54:19.797Z,62.59
2016-04-15T00:55:19.816Z,62.59
2016-04-15T00:56:19.833Z,62.68
2016-04-15T00:57:19.852Z,62.49
2016-04-15T00:58:19.871Z,62.59
2016-04-15T00:59:19.888Z,62.49
2016-04-15T01:00:19.891Z,62.49
2016-04-15T01:01:19.926Z,62.49
2016-04-15T01:02:19.960Z,62.4
2016-04-15T01:03:19.963Z,62.3
2016-04-15T01:04:19.980Z,62.3
2016-04-15T01:05:19.999Z,62.3
2016-04-15T01:06:20.017Z,61.64
2016-04-15T01:07:20.035Z,62.02
2016-04-15T01:08:20.038Z,62.02
2016-04-15T01:09:20.073Z,61.73
2016-04-15T01:10:20.090Z,62.02
2016-04-15T01:11:20.093Z,61.93
2016-04-15T01:12:20.111Z,62.02
2016-04-15T01:13:20.145Z,61.93
2016-04-15T01:14:20.148Z,61.64
2016-04-15T01:15:20.181Z,61.45
2016-04-15T01:16:20.185Z,61.35
2016-04-15T01:17:20.203Z,61.35
2016-04-15T01:18:20.237Z,61.35
2016-04-15T01:19:20.240Z,61.54
2016-04-15T01:20:20.242Z,61.54
2016-04-15T01:21:20.276Z,61.35
2016-04-15T01:22:20.294Z,61.83
2016-04-15T01:23:20.313Z,61.64
2016-04-15T01:24:20.331Z,61.93
2016-04-15T01:25:20.349Z,61.54
2016-04-15T01:26:20.369Z,62.4
2016-04-15T01:27:20.371Z,62.3
2016-04-15T01:28:20.405Z,62.3
2016-04-15T01:29:20.423Z,62.3
2016-04-15T01:30:20.472Z,62.49
2016-04-15T01:31:20.475Z,62.59
2016-04-15T01:32:20.509Z,62.59
2016-04-15T01:33:20.512Z,62.97
2016-04-15T01:34:20.515Z,62.68
2016-04-15T01:35:20.518Z,62.59
2016-04-15T01:36:20.551Z,62.68
2016-04-15T01:37:20.554Z,62.59
2016-04-15T01:38:20.587Z,62.78
2016-04-15T01:39:20.590Z,62.68
2016-04-15T01:40:20.624Z,62.02
2016-04-15T01:41:20.626Z,62.3
2016-04-15T01:42:20.646Z,62.3
2016-04-15T01:43:20.679Z,62.59
2016-04-15T01:44:20.698Z,61.83
2016-04-15T01:45:20.716Z,62.02
2016-04-15T01:46:20.718Z,61.54
2016-04-15T01:47:20.753Z,61.83
2016-04-15T01:48:20.755Z,61.54
2016-04-15T01:49:20.773Z,61.83
2016-04-15T01:50:20.792Z,61.64
2016-04-15T01:51:20.810Z,62.49
2016-04-15T01:52:20.828Z,61.64
2016-04-15T01:53:20.861Z,61.93
2016-04-15T01:54:20.880Z,61.83
2016-04-15T01:55:20.883Z,62.49
2016-04-15T01:56:20.901Z,61.64
2016-04-15T01:57:20.905Z,62.02
2016-04-15T01:58:20.938Z,62.02
2016-04-15T01:59:20.941Z,61.93
2016-04-15T02:00:20.975Z,61.73
2016-04-15T02:01:20.994Z,62.68
2016-04-15T02:02:20.261Z,61.83
2016-04-15T02:03:21.014Z,62.02
2016-04-15T02:04:21.032Z,62.12
2016-04-15T02:05:21.066Z,61.83
2016-04-15T02:06:21.069Z,61.93
2016-04-15T02:07:21.104Z,61.83
2016-04-15T02:08:21.107Z,61.93
2016-04-15T02:09:21.124Z,61.93
2016-04-15T02:10:21.143Z,61.93
2016-04-15T02:11:21.177Z,61.83
2016-04-15T02:12:21.179Z,61.83
2016-04-15T02:13:21.198Z,62.3
2016-04-15T02:14:20.465Z,62.59
2016-04-15T02:15:21.234Z,63.83
2016-04-15T02:16:21.299Z,64.12
2016-04-15T02:17:21.286Z,64.31
2016-04-15T02:18:21.304Z,64.4
2016-04-15T02:19:21.291Z,64.02
2016-04-15T02:20:21.309Z,64.02
2016-04-15T02:21:21.391Z,63.73
2016-04-15T02:22:21.393Z,64.02
2016-04-15T02:23:21.381Z,63.45
2016-04-15T02:24:21.399Z,63.64
2016-04-15T02:25:21.417Z,63.73
2016-04-15T02:26:21.295Z,63.64
2016-04-15T02:27:21.453Z,63.73
2016-04-15T02:28:21.472Z,63.45
2016-04-15T02:29:21.475Z,63.45
2016-04-15T02:30:21.508Z,64.02
2016-04-15T02:31:21.527Z,64.02
2016-04-15T02:32:21.546Z,64.4
2016-04-15T02:33:21.563Z,64.5
2016-04-15T02:34:21.566Z,65.16
2016-04-15T02:35:21.599Z,65.36
2016-04-15T02:36:21.618Z,66.02
2016-04-15T02:37:21.637Z,66.02
2016-04-15T02:38:21.640Z,66.88
2016-04-15T02:39:21.674Z,66.69
2016-04-15T02:40:21.692Z,67.26
2016-04-15T02:41:21.710Z,67.07
2016-04-15T02:42:21.729Z,67.64
2016-04-15T02:43:21.731Z,67.45
2016-04-15T02:44:21.749Z,67.64
2016-04-15T02:45:21.767Z,67.45
2016-04-15T02:46:21.786Z,67.55
2016-04-15T02:47:21.804Z,67.26
2016-04-15T02:48:21.823Z,66.78
2016-04-15T02:49:21.857Z,67.07
2016-04-15T02:50:21.845Z,66.59
2016-04-15T02:51:21.878Z,67.26
2016-04-15T02:52:21.896Z,66.97
2016-04-15T02:53:21.915Z,67.35
2016-04-15T02:54:21.933Z,67.16
2016-04-15T02:55:21.951Z,67.16
2016-04-15T02:56:21.953Z,67.64
2016-04-15T02:57:21.988Z,67.45
2016-04-15T02:58:21.991Z,67.16
2016-04-15T02:59:22.008Z,67.45
2016-04-15T03:00:22.042Z,66.69
2016-04-15T03:01:22.061Z,67.07
2016-04-15T03:02:22.080Z,66.97
2016-04-15T03:03:22.097Z,66.69
2016-04-15T03:04:22.100Z,67.26
2016-04-15T03:05:22.119Z,66.69
2016-04-15T03:06:22.152Z,67.64
2016-04-15T03:07:22.171Z,67.45
2016-04-15T03:08:22.189Z,67.16
2016-04-15T03:09:22.191Z,66.88
2016-04-15T03:10:22.226Z,66.69
2016-04-15T03:11:22.228Z,66.59
2016-04-15T03:12:22.246Z,66.88
2016-04-15T03:13:22.281Z,66.59
2016-04-15T03:14:22.283Z,66.59
2016-04-15T03:15:22.301Z,66.69
2016-04-15T03:16:22.320Z,67.03
2016-04-15T03:17:22.337Z,66.75
2016-04-15T03:18:22.372Z,66.97
2016-04-15T03:19:22.375Z,66.88
2016-04-15T03:20:22.393Z,67.16
2016-04-15T03:21:22.412Z,66.88
2016-04-15T03:22:22.430Z,66.97
2016-04-15T03:23:22.448Z,66.46
2016-04-15T03:24:22.451Z,66.27
2016-04-15T03:25:22.469Z,66.69
2016-04-15T03:26:22.487Z,66.85
2016-04-15T03:27:22.505Z,66.75
2016-04-15T03:28:22.524Z,67.51
2016-04-15T03:29:22.542Z,67.03
2016-04-15T03:30:22.514Z,67.64
2016-04-15T03:31:22.580Z,67.41
2016-04-15T03:32:22.613Z,67.7
2016-04-15T03:33:22.631Z,68.46
2016-04-15T03:34:22.634Z,68.37
2016-04-15T03:35:22.636Z,68.84
2016-04-15T03:36:22.671Z,68.65
2016-04-15T03:37:22.688Z,68.46
2016-04-15T03:38:22.707Z,68.94
2016-04-15T03:39:22.726Z,68.75
2016-04-15T03:40:22.744Z,68.37
2016-04-15T03:41:22.762Z,68.27
2016-04-15T03:42:22.780Z,68.37
2016-04-15T03:43:22.799Z,68.27
2016-04-15T03:44:22.817Z,67.61
2016-04-15T03:45:22.929Z,67.61
2016-04-15T03:46:22.838Z,67.61
2016-04-15T03:47:22.857Z,66.88
2016-04-15T03:48:22.890Z,66.37
2016-04-15T03:49:22.909Z,66.5
2016-04-15T03:50:22.926Z,66.5
2016-04-15T03:51:22.929Z,66.31
2016-04-15T03:52:22.948Z,66.5
2016-04-15T03:53:22.966Z,66.02
2016-04-15T03:54:22.984Z,66.11
2016-04-15T03:55:23.003Z,66.31
2016-04-15T03:56:23.021Z,66.21
2016-04-15T03:57:23.039Z,65.83
2016-04-15T03:58:23.057Z,66.31
2016-04-15T03:59:23.075Z,66.21
2016-04-15T04:00:23.235Z,66.69
2016-04-15T04:01:23.128Z,67.26
2016-04-15T04:02:23.147Z,67.55
2016-04-15T04:03:23.149Z,67.55
2016-04-15T04:04:23.168Z,67.93
2016-04-15T04:05:23.186Z,68.3
2016-04-15T04:06:23.204Z,68.59
2016-04-15T04:07:23.222Z,68.98
2016-04-15T04:08:23.241Z,70.21
2016-04-15T04:09:23.243Z,70.69
2016-04-15T04:10:23.277Z,71.73
2016-04-15T04:11:23.296Z,71.45
2016-04-15T04:12:23.315Z,71.26
2016-04-15T04:13:23.317Z,71.73
2016-04-15T04:14:23.351Z,72.31
2016-04-15T04:15:23.416Z,73.74
2016-04-15T04:16:23.387Z,74.5
2016-04-15T04:17:23.406Z,74.84
2016-04-15T04:18:23.424Z,76.88
2016-04-15T04:19:23.426Z,77.7
2016-04-15T04:20:23.445Z,79.32
2016-04-15T04:21:23.479Z,79.7
2016-04-15T04:22:23.512Z,80.18
2016-04-15T04:23:23.515Z,80.55
2016-04-15T04:24:23.517Z,80.55
2016-04-15T04:25:23.536Z,80.55
2016-04-15T04:26:23.555Z,80.75
2016-04-15T04:27:23.589Z,81.7
2016-04-15T04:28:23.592Z,80.55
2016-04-15T04:29:23.611Z,79.99
2016-04-15T04:30:23.628Z,80.18
2016-04-15T04:31:23.647Z,80.65
2016-04-15T04:32:23.665Z,81.13
2016-04-15T04:33:23.683Z,81.32
2016-04-15T04:34:23.702Z,81.41
2016-04-15T04:35:23.704Z,81.51
2016-04-15T04:36:23.738Z,81.41
2016-04-15T04:37:23.757Z,82.18
2016-04-15T04:38:23.790Z,82.93
2016-04-15T04:39:23.793Z,82.93
2016-04-15T04:40:23.795Z,83.89
2016-04-15T04:41:23.813Z,83.8
2016-04-15T04:42:23.832Z,84.56
2016-04-15T04:43:23.866Z,85.22
2016-04-15T04:44:23.885Z,85.7
2016-04-15T04:45:23.887Z,85.89
2016-04-15T04:46:23.921Z,85.51
2016-04-15T04:47:23.924Z,86.36
2016-04-15T04:48:23.942Z,86.27
2016-04-15T04:49:23.960Z,86.55
2016-04-15T04:50:23.994Z,87.13
2016-04-15T04:51:23.877Z,86.9
2016-04-15T04:52:24.063Z,87.08
2016-04-15T04:53:24.048Z,86.65
2016-04-15T04:54:24.050Z,86.65
2016-04-15T04:55:24.073Z,86.9
2016-04-15T04:56:24.092Z,86.8
2016-04-15T04:57:24.094Z,86.04
2016-04-15T04:58:24.128Z,86.27
2016-04-15T04:59:24.131Z,86.08
2016-04-15T05:00:24.165Z,86.04
2016-04-15T05:01:24.183Z,86.04
2016-04-15T05:02:24.186Z,86.8
2016-04-15T05:03:24.220Z,86.61
2016-04-15T05:04:24.222Z,86.51
2016-04-15T05:05:24.241Z,86.61
2016-04-15T05:06:24.258Z,86.8
2016-04-15T05:07:24.277Z,87.13
2016-04-15T05:08:24.296Z,87.23
2016-04-15T05:09:24.313Z,87.32
2016-04-15T05:10:24.333Z,87.18
2016-04-15T05:11:24.351Z,87.18
2016-04-15T05:12:24.369Z,87.56
2016-04-15T05:13:24.388Z,87.27
2016-04-15T05:14:24.390Z,87.56
2016-04-15T05:15:24.408Z,87.37
2016-04-15T05:16:24.443Z,87.56
2016-04-15T05:17:24.445Z,86.99
2016-04-15T05:19:24.512Z,87.75
2016-04-15T05:20:24.515Z,87.75
2016-04-15T05:21:24.518Z,87.65
2016-04-15T05:22:24.551Z,88.23
2016-04-15T05:23:24.554Z,88.13
2016-04-15T05:24:24.573Z,87.56
2016-04-15T05:25:24.591Z,88.04
2016-04-15T05:26:24.656Z,87.56
2016-04-15T05:27:24.659Z,87.08
2016-04-15T05:28:24.693Z,87.37
2016-04-15T05:29:24.696Z,87.27
2016-04-15T05:30:24.745Z,87.18
2016-04-15T05:31:24.764Z,87.56
2016-04-15T05:32:24.766Z,87.56
2016-04-15T05:33:24.785Z,87.18
2016-04-15T05:34:24.772Z,87.56
2016-04-15T05:35:24.774Z,87.27
2016-04-15T05:36:24.778Z,87.08
2016-04-15T05:37:24.796Z,87.13
2016-04-15T05:38:24.830Z,87.41
2016-04-15T05:39:24.848Z,87.85
2016-04-15T05:40:24.866Z,87.32
2016-04-15T05:41:24.869Z,86.94
2016-04-15T05:42:24.887Z,86.94
2016-04-15T05:43:24.905Z,87.23
2016-04-15T05:44:24.924Z,87.03
2016-04-15T05:45:24.926Z,86.55
2016-04-15T05:46:24.960Z,86.51
2016-04-15T05:47:24.979Z,86.22
2016-04-15T05:48:24.996Z,86.46
2016-04-15T05:49:25.031Z,86.36
2016-04-15T05:50:25.034Z,85.8
2016-04-15T05:51:25.051Z,85.51
2016-04-15T05:52:25.071Z,85.89
2016-04-15T05:53:25.089Z,85.99
2016-04-15T05:54:25.107Z,85.99
2016-04-15T05:55:25.126Z,85.51
2016-04-15T05:56:25.143Z,85.22
2016-04-15T05:57:25.162Z,84.84
2016-04-15T05:58:25.195Z,84.75
2016-04-15T05:59:25.183Z,84.65
2016-04-15T06:00:25.201Z,84.36
2016-04-15T06:01:25.219Z,84.46
2016-04-15T06:02:25.238Z,83.98
2016-04-15T06:03:25.255Z,83.51
2016-04-15T06:04:25.289Z,83.03
2016-04-15T06:05:25.292Z,83.7
2016-04-15T06:06:25.341Z,83.51
2016-04-15T06:07:25.329Z,83.51
2016-04-15T06:08:25.363Z,82.84
2016-04-15T06:09:25.366Z,83.41
2016-04-15T06:10:25.385Z,83.7
2016-04-15T06:11:25.403Z,82.93
2016-04-15T06:12:25.405Z,83.03
2016-04-15T06:13:25.424Z,83.03
2016-04-15T06:14:25.457Z,82.93
2016-04-15T06:15:25.476Z,82.27
2016-04-15T06:16:25.494Z,82.65
2016-04-15T06:17:25.496Z,82.84
2016-04-15T06:18:25.515Z,83.22
2016-04-15T06:19:25.534Z,82.93
2016-04-15T06:20:25.568Z,82.56
2016-04-15T06:21:25.576Z,82.37
2016-04-15T06:22:25.580Z,81.98
2016-04-15T06:23:25.614Z,82.46
2016-04-15T06:24:25.632Z,81.23
2016-04-15T06:25:25.650Z,81.7
2016-04-15T06:26:25.669Z,82.08
2016-04-15T06:27:25.769Z,82.18
2016-04-15T06:28:25.694Z,82.37
2016-04-15T06:29:25.712Z,82.37
2016-04-15T06:30:25.730Z,83.13
2016-04-15T06:31:25.749Z,81.51
2016-04-15T06:32:25.768Z,81.7
2016-04-15T06:33:25.786Z,81.41
2016-04-15T06:34:25.805Z,81.41
2016-04-15T06:35:25.807Z,82.18
2016-04-15T06:36:25.826Z,81.26
2016-04-15T06:37:25.844Z,81.89
2016-04-15T06:38:25.862Z,81.79
2016-04-15T06:39:25.912Z,81.17
2016-04-15T06:40:25.898Z,82.27
2016-04-15T06:41:25.917Z,82.03
2016-04-15T06:42:25.951Z,81.55
2016-04-15T06:43:25.953Z,82.21
2016-04-15T06:44:25.972Z,82.03
2016-04-15T06:45:25.989Z,82.03
2016-04-15T06:46:26.023Z,81.74
2016-04-15T06:47:26.011Z,81.55
2016-04-15T06:48:26.044Z,81.46
2016-04-15T06:49:26.064Z,80.41
2016-04-15T06:50:26.097Z,80.6
2016-04-15T06:51:26.100Z,80.12
2016-04-15T06:52:26.134Z,80.31
2016-04-15T06:53:26.136Z,80.79
2016-04-15T06:54:26.155Z,80.79
2016-04-15T06:55:26.157Z,80.79
2016-04-15T06:56:26.191Z,80.69
2016-04-15T06:57:26.194Z,79.83
2016-04-15T06:58:26.228Z,79.64
2016-04-15T06:59:26.247Z,79.83
2016-04-15T07:00:26.266Z,79.27
2016-04-15T07:01:26.283Z,79.17
2016-04-15T07:02:26.286Z,78.88
2016-04-15T07:03:26.304Z,79.36
2016-04-15T07:04:26.322Z,79.55
2016-04-15T07:05:26.357Z,79.55
2016-04-15T07:06:26.359Z,79.88
2016-04-15T07:07:26.377Z,79.88
2016-04-15T07:08:26.396Z,79.88
2016-04-15T07:09:26.414Z,79.88
2016-04-15T07:10:26.432Z,78.92
2016-04-15T07:11:26.450Z,78.35
2016-04-15T07:12:26.468Z,78.06
2016-04-15T07:13:26.471Z,78.35
2016-04-15T07:14:26.521Z,78.25
2016-04-15T07:15:26.540Z,78.73
2016-04-15T07:16:26.542Z,78.25
2016-04-15T07:17:26.561Z,78.06
2016-04-15T07:18:25.829Z,78.16
2016-04-15T07:19:26.582Z,76.96
2016-04-15T07:20:26.615Z,77.25
2016-04-15T07:21:26.638Z,77.34
2016-04-15T07:22:26.657Z,77.34
2016-04-15T07:23:26.660Z,76.96
2016-04-15T07:24:26.693Z,76.86
2016-04-15T07:25:26.712Z,76.96
2016-04-15T07:26:26.714Z,76.39
2016-04-15T07:27:26.748Z,76.96
2016-04-15T07:28:26.757Z,76.96
2016-04-15T07:29:26.024Z,76.57
2016-04-15T07:30:26.793Z,75.91
2016-04-15T07:31:26.812Z,76.29
2016-04-15T07:32:26.845Z,76.29
2016-04-15T07:33:26.879Z,76.2
2016-04-15T07:34:26.865Z,75.81
2016-04-15T07:35:26.884Z,75.72
2016-04-15T07:36:26.934Z,75.62
2016-04-15T07:37:26.936Z,76.01
2016-04-15T07:38:26.970Z,76.01
2016-04-15T07:39:26.958Z,76.1
2016-04-15T07:40:26.975Z,75.53
2016-04-15T07:41:27.010Z,75.81
2016-04-15T07:42:27.044Z,75.81
2016-04-15T07:43:27.031Z,76.2
2016-04-15T07:44:27.097Z,76.01
2016-04-15T07:45:27.083Z,75.62
2016-04-15T07:46:27.117Z,76.77
2016-04-15T07:47:27.135Z,77.15
2016-04-15T07:48:27.169Z,77.53
2016-04-15T07:49:27.156Z,77.34
2016-04-15T07:50:27.205Z,77.34
2016-04-15T07:51:27.224Z,77.06
2016-04-15T07:52:27.226Z,76.1
2016-04-15T07:53:27.229Z,76.96
2016-04-15T07:54:27.232Z,77.44
2016-04-15T07:55:27.281Z,78.01
2016-04-15T07:56:27.285Z,77.72
2016-04-15T07:57:27.302Z,77.91
2016-04-15T07:58:27.321Z,78.49
2016-04-15T07:59:27.339Z,78.2
2016-04-15T08:00:26.607Z,78.3
2016-04-15T08:01:27.376Z,78.3
2016-04-15T08:02:27.394Z,78.77
2016-04-15T08:03:27.412Z,79.35
2016-04-15T08:04:27.431Z,79.35
2016-04-15T08:05:27.449Z,79.06
2016-04-15T08:06:27.484Z,78.67
2016-04-15T08:07:27.471Z,78.86
2016-04-15T08:08:27.504Z,78.67
2016-04-15T08:09:27.523Z,78.96
2016-04-15T08:10:27.541Z,79.25
2016-04-15T08:11:27.794Z,79.35
2016-04-15T08:12:27.578Z,79.15
2016-04-15T08:13:27.595Z,80.11
2016-04-15T08:14:27.614Z,80.11
2016-04-15T08:15:27.647Z,80.2
2016-04-15T08:16:27.651Z,80.11
2016-04-15T08:17:27.685Z,79.63
2016-04-15T08:18:27.688Z,79.63
2016-04-15T08:19:27.706Z,80.11
2016-04-15T08:20:27.724Z,80.11
2016-04-15T08:21:27.748Z,79.06
2016-04-15T08:22:27.767Z,79.35
2016-04-15T08:23:27.769Z,79.91
2016-04-15T08:24:27.803Z,80.01
2016-04-15T08:25:27.821Z,80.01
2016-04-15T08:26:27.839Z,79.91
2016-04-15T08:27:27.858Z,79.72
2016-04-15T08:28:27.891Z,80.68
2016-04-15T08:29:27.895Z,80.83
2016-04-15T08:30:27.928Z,80.73
2016-04-15T08:31:27.936Z,80.44
2016-04-15T08:32:27.997Z,80.83
2016-04-15T08:33:28.058Z,81.3
2016-04-15T08:34:28.118Z,81.88
2016-04-15T08:35:28.164Z,82.17
2016-04-15T08:36:28.238Z,82.49
2016-04-15T08:37:28.271Z,82.35
2016-04-15T08:38:28.352Z,81.68
2016-04-15T08:39:28.370Z,80.64
2016-04-15T08:40:28.356Z,81.12
2016-04-15T08:41:28.420Z,81.06
2016-04-15T08:42:28.428Z,81.54
2016-04-15T08:43:28.452Z,80.68
2016-04-15T08:44:28.477Z,79.25
2016-04-15T08:45:28.500Z,78.77
2016-04-15T08:46:29.601Z,78.2
2016-04-15T08:47:28.559Z,77.72
2016-04-15T08:48:28.563Z,78.2
2016-04-15T08:49:28.584Z,77.82
2016-04-15T08:50:28.619Z,77.44
2016-04-15T08:51:28.624Z,77.15
2016-04-15T08:52:28.644Z,76.77
2016-04-15T08:53:28.662Z,76.67
2016-04-15T08:54:28.682Z,76.81
2016-04-15T08:55:28.700Z,76.04
2016-04-15T08:56:28.719Z,76.14
2016-04-15T08:57:28.738Z,76.23
2016-04-15T08:58:28.756Z,75.37
2016-04-15T08:59:28.776Z,75.18
2016-04-15T09:00:28.794Z,75.28
2016-04-15T09:01:28.843Z,74.9
2016-04-15T09:02:28.831Z,75.18
2016-04-15T09:03:28.849Z,75.47
2016-04-15T09:04:28.868Z,75.47
2016-04-15T09:05:28.887Z,75.47
2016-04-15T09:06:28.920Z,74.61
2016-04-15T09:07:28.939Z,74.23
2016-04-15T09:08:28.956Z,74.42
2016-04-15T09:09:28.975Z,73.6
2016-04-15T09:10:28.993Z,73.6
2016-04-15T09:11:29.011Z,74.17
2016-04-15T09:12:29.045Z,73.5
2016-04-15T09:13:29.047Z,72.17
2016-04-15T09:14:29.066Z,72.74
2016-04-15T09:15:29.085Z,72.36
2016-04-15T09:16:29.134Z,72.36
2016-04-15T09:17:29.137Z,73.41
2016-04-15T09:18:29.155Z,71.82
2016-04-15T09:19:29.174Z,71.98
2016-04-15T09:20:29.191Z,71.15
2016-04-15T09:21:29.226Z,71.72
2016-04-15T09:22:29.229Z,71.82
2016-04-15T09:23:29.263Z,71.06
2016-04-15T09:24:29.280Z,70.58
2016-04-15T09:25:29.284Z,70.58
2016-04-15T09:26:29.318Z,70.48
2016-04-15T09:27:29.321Z,70.01
2016-04-15T09:28:29.338Z,69.53
2016-04-15T09:29:29.357Z,69.62
2016-04-15T09:30:29.376Z,68.76
2016-04-15T09:31:29.440Z,68.32
2016-04-15T09:32:29.427Z,68.51
2016-04-15T09:33:29.429Z,67.75
2016-04-15T09:34:29.479Z,67.84
2016-04-15T09:35:29.482Z,68.13
2016-04-15T09:36:36.063Z,66.89
2016-04-15T09:37:34.535Z,67.4
2016-04-15T09:38:37.553Z,66.25
2016-04-15T09:39:35.978Z,66.25
2016-04-15T09:40:29.620Z,65.77
2016-04-15T09:41:36.186Z,65.87
2016-04-15T09:42:37.579Z,67.11
2016-04-15T09:43:36.910Z,66.63
2016-04-15T09:44:38.772Z,66.06
2016-04-15T09:45:34.040Z,66.28
2016-04-15T09:46:34.433Z,65.71
2016-04-15T09:47:35.467Z,64.85
2016-04-15T09:48:34.002Z,64.66
2016-04-15T09:49:31.630Z,64.28
2016-04-15T09:50:36.366Z,64.09
2016-04-15T09:51:30.853Z,64.95
2016-04-15T09:52:32.902Z,65.33
2016-04-15T09:53:35.312Z,65.33
2016-04-15T09:54:34.252Z,65.33
2016-04-15T09:55:35.802Z,65.52
2016-04-15T09:56:47.024Z,66.09
2016-04-15T09:57:37.339Z,65.14
2016-04-15T09:58:29.935Z,65.23
2016-04-15T09:59:29.969Z,64.47
2016-04-15T10:00:30.159Z,64.18
2016-04-15T10:01:30.709Z,64.37
2016-04-15T10:02:30.164Z,65.23
2016-04-15T10:03:30.557Z,64.12
2016-04-15T10:04:30.076Z,60.96
2016-04-15T10:05:29.328Z,61.44
2016-04-15T10:06:30.362Z,60.96
2016-04-15T10:07:30.131Z,60.13
2016-04-15T10:08:30.149Z,60.13
2016-04-15T10:09:30.168Z,59.84
2016-04-15T10:10:30.201Z,58.79
2016-04-15T10:11:30.220Z,57.95
2016-04-15T10:12:30.238Z,57.54
2016-04-15T10:13:30.256Z,57.57
2016-04-15T10:14:30.290Z,57.67
2016-04-15T10:15:30.308Z,58.44
2016-04-15T10:16:30.311Z,56.71
2016-04-15T10:17:30.360Z,55.75
2016-04-15T10:18:30.363Z,55.36
2016-04-15T10:19:30.397Z,55.75
2016-04-15T10:20:30.431Z,55.65
2016-04-15T10:21:30.450Z,55.36
2016-04-15T10:22:35.077Z,55.46
2016-04-15T10:23:30.471Z,55.4
2016-04-15T10:24:30.504Z,55.78
2016-04-15T10:25:30.523Z,55.21
2016-04-15T10:26:30.557Z,55.01
2016-04-15T10:27:30.560Z,55.94
2016-04-15T10:28:30.594Z,54.79
2016-04-15T10:29:30.597Z,54.7
2016-04-15T10:30:31.443Z,53.55
2016-04-15T10:31:30.649Z,53.36
2016-04-15T10:32:30.667Z,53.33
2016-04-15T10:33:30.685Z,54.19
2016-04-15T10:34:30.718Z,54.48
2016-04-15T10:35:30.737Z,54.19
2016-04-15T10:36:30.756Z,54.48
2016-04-15T10:37:30.773Z,55.34
2016-04-15T10:38:30.793Z,55.53
2016-04-15T10:39:30.811Z,55.63
2016-04-15T10:40:30.829Z,54.57
2016-04-15T10:41:30.862Z,53.23
2016-04-15T10:42:30.897Z,54.38
2016-04-15T10:43:30.900Z,54.77
2016-04-15T10:44:30.949Z,54.57
2016-04-15T10:45:30.952Z,52.59
2016-04-15T10:46:30.969Z,52.4
2016-04-15T10:47:30.988Z,52.3
2016-04-15T10:48:31.022Z,52.5
2016-04-15T10:49:31.024Z,52.2
2016-04-15T10:50:31.059Z,52.78
2016-04-15T10:51:31.077Z,53.07
2016-04-15T10:52:31.111Z,52.33
2016-04-15T10:53:31.113Z,52.14
2016-04-15T10:54:31.147Z,51.65
2016-04-15T10:55:31.775Z,52.23
2016-04-15T10:56:31.200Z,50.6
2016-04-15T10:57:31.219Z,51.08
2016-04-15T10:58:31.222Z,52.23
2016-04-15T10:59:31.255Z,51.65
2016-04-15T11:00:31.258Z,52.04
2016-04-15T11:01:31.292Z,51.28
2016-04-15T11:02:31.326Z,51.37
2016-04-15T11:03:31.329Z,51.56
2016-04-15T11:04:31.362Z,52.42
2016-04-15T11:05:31.365Z,52.52
2016-04-15T11:06:31.398Z,52.14
2016-04-15T11:07:31.432Z,51.75
2016-04-15T11:08:31.435Z,51.37
2016-04-15T11:09:31.454Z,51.46
2016-04-15T11:10:31.504Z,51.46
2016-04-15T11:11:31.506Z,51.28
2016-04-15T11:12:31.540Z,51.37
2016-04-15T11:13:31.559Z,51.95
2016-04-15T11:14:31.561Z,52.33
2016-04-15T11:15:31.611Z,51.18
2016-04-15T11:16:31.628Z,51.56
2016-04-15T11:17:31.647Z,50.89
2016-04-15T11:18:31.680Z,50.41
2016-04-15T11:19:31.683Z,51.18
2016-04-15T11:20:31.717Z,50.53
2016-04-15T11:21:31.752Z,49.96
2016-04-15T11:22:31.786Z,49
2016-04-15T11:23:31.772Z,48.61
2016-04-15T11:24:31.838Z,48.23
2016-04-15T11:25:31.824Z,49.19
2016-04-15T11:26:31.858Z,49.57
2016-04-15T11:27:31.861Z,48.61
2016-04-15T11:28:31.896Z,48.61
2016-04-15T11:29:31.914Z,48.23
2016-04-15T11:30:31.933Z,48.43
2016-04-15T11:31:31.966Z,46.31
2016-04-15T11:32:31.969Z,44.61
2016-04-15T11:33:32.002Z,44.32
2016-04-15T11:34:32.021Z,44.7
2016-04-15T11:35:32.040Z,44.32
2016-04-15T11:36:36.964Z,43.27
2016-04-15T11:37:32.076Z,43.65
2016-04-15T11:38:32.109Z,44.23
2016-04-15T11:39:32.144Z,43.07
2016-04-15T11:40:32.146Z,42.69
2016-04-15T11:41:33.743Z,43.65
2016-04-15T11:42:32.214Z,43.38
2016-04-15T11:43:32.217Z,43.38
2016-04-15T11:44:32.236Z,42.04
2016-04-15T11:45:32.269Z,41.75
2016-04-15T11:46:32.287Z,41.08
2016-04-15T11:47:32.306Z,41.35
2016-04-15T11:48:32.324Z,41.25
2016-04-15T11:49:32.358Z,40.87
2016-04-15T11:50:32.377Z,40.29
2016-04-15T11:51:32.394Z,40.87
2016-04-15T11:52:32.428Z,41.54
2016-04-15T11:53:32.431Z,42.86
2016-04-15T11:54:32.496Z,42.47
2016-04-15T11:55:32.483Z,41.8
2016-04-15T11:56:32.518Z,41.9
2016-04-15T11:57:32.536Z,41.93
2016-04-15T11:58:32.602Z,41.35
2016-04-15T11:59:32.572Z,40.67
2016-04-15T12:00:32.638Z,40.77
2016-04-15T12:01:32.624Z,40.87
2016-04-15T12:02:32.705Z,40.58
2016-04-15T12:03:32.692Z,40.87
2016-04-15T12:04:32.726Z,40.58
2016-04-15T12:05:32.713Z,40.58
2016-04-15T12:06:32.795Z,40.58
2016-04-15T12:07:32.750Z,40.77
2016-04-15T12:08:33.004Z,37.99
2016-04-15T12:09:32.803Z,39.14
2016-04-15T12:10:32.839Z,39.14
2016-04-15T12:11:32.857Z,38.76
2016-04-15T12:12:32.875Z,40
2016-04-15T12:13:32.909Z,39.33
2016-04-15T12:14:32.927Z,39.79
2016-04-15T12:15:32.946Z,40.66
2016-04-15T12:16:32.979Z,41.04
2016-04-15T12:17:32.983Z,40.56
2016-04-15T12:18:33.000Z,41.33
2016-04-15T12:19:33.050Z,40.94
2016-04-15T12:20:33.053Z,40.84
2016-04-15T12:21:33.071Z,40.37
2016-04-15T12:22:33.090Z,40.84
2016-04-15T12:23:33.123Z,41.04
2016-04-15T12:24:33.141Z,40.2
2016-04-15T12:25:33.170Z,40
2016-04-15T12:26:33.187Z,39.81
2016-04-15T12:27:33.222Z,40.48
2016-04-15T12:28:33.240Z,40
2016-04-15T12:29:33.243Z,39.62
2016-04-15T12:30:33.278Z,40.48
2016-04-15T12:31:33.295Z,40.67
2016-04-15T12:32:33.329Z,40
2016-04-15T12:33:33.347Z,41.44
2016-04-15T12:34:33.366Z,42.02
2016-04-15T12:35:33.384Z,42.79
2016-04-15T12:36:33.403Z,41.93
2016-04-15T12:37:33.437Z,43.15
2016-04-15T12:38:33.455Z,43.15
2016-04-15T12:39:33.473Z,43.44
2016-04-15T12:40:33.491Z,44.76
2016-04-15T12:41:33.510Z,45.69
2016-04-15T12:42:33.544Z,46.19
2016-04-15T12:43:33.562Z,45.72
2016-04-15T12:44:33.596Z,45.54
2016-04-15T12:45:33.598Z,44.78
2016-04-15T12:46:33.633Z,45.64
2016-04-15T12:47:33.651Z,44.78
2016-04-15T12:48:33.669Z,44.4
2016-04-15T12:49:33.704Z,44.78
2016-04-15T12:50:33.706Z,44.3
2016-04-15T12:51:33.740Z,42.86
2016-04-15T12:52:33.757Z,40.87
2016-04-15T12:53:33.792Z,39.72
2016-04-15T12:54:33.794Z,39.33
2016-04-15T12:55:33.828Z,39.43
2016-04-15T12:56:33.847Z,39.14